Dalian, China
Current Conditions -  °F | °C
As of 9:30 PM on Sunday 21 Dec 2014 (Local Time) from ZYTL Reporting Station
Scattered Clouds Scattered Clouds  
Wind Chill: 19°   Ceiling: Unl
Heat Index: 30°   Visibility: 6mi
Dew Point:   Wind: 16mph
Humidity: 40%   Direction: 290°WNW
Pressure: 30.18"   Gusts: NA
Location:  38.92°N, 121.65°E
Report Text: ZYTL 211330Z 29007MPS 9999 SCT040 M01/M13 Q1022 NOSIG
Loading
Personal Weather Stations






























Interactive Weather Map New forecast layout! Learn more

10-Day Weather Forecast

Advertisements
Track Severe Weather on mobile